Time;durP1;ratioP1;P1;durP2;ratioP2;P2;SDS_P1;SDS_P2;PMS_P1;PMS_P2;Temp;Humidity;BMP_temperature;BMP_pressure;BME280_temperature;BME280_humidity;BME280_pressure;Samples;Min_cycle;Max_cycle;Signal;HPM_P1;HPM_P2
2022/06/11 00:01:14;;;;;;;3.53;2.37;;;;;;;;;;5104384;28;20236;-63
2022/06/11 00:03:43;;;;;;;3.57;2.07;;;;;;;;;;5099955;28;20660;-63
2022/06/11 00:06:12;;;;;;;4.70;2.17;;;;;;;;;;5091083;28;20309;-63
2022/06/11 00:08:40;;;;;;;4.37;2.10;;;;;;;;;;5090654;28;20207;-63
2022/06/11 00:11:08;;;;;;;4.30;2.30;;;;;;;;;;5090771;28;20206;-63
2022/06/11 00:13:37;;;;;;;9.87;2.67;;;;;;;;;;5097639;28;20230;-63
2022/06/11 00:16:06;;;;;;;3.20;2.20;;;;;;;;;;5091123;28;20326;-63
2022/06/11 00:18:36;;;;;;;3.60;2.43;;;;;;;;;;5097124;28;20205;-63
2022/06/11 00:21:04;;;;;;;4.23;2.57;;;;;;;;;;5093713;28;20281;-63
2022/06/11 00:23:33;;;;;;;4.17;2.87;;;;;;;;;;5090385;28;20209;-63
2022/06/11 00:26:01;;;;;;;4.93;3.17;;;;;;;;;;5090140;28;20202;-63
2022/06/11 00:28:32;;;;;;;5.63;2.70;;;;;;;;;;5093863;28;20206;-62
2022/06/11 00:31:02;;;;;;;5.77;3.57;;;;;;;;;;5092214;28;20251;-63
2022/06/11 00:33:30;;;;;;;5.27;2.90;;;;;;;;;;5095110;28;20236;-63
2022/06/11 00:35:59;;;;;;;6.93;3.33;;;;;;;;;;5094821;28;20350;-63
2022/06/11 00:38:27;;;;;;;6.93;3.30;;;;;;;;;;5094782;28;20904;-63
2022/06/11 00:40:55;;;;;;;5.47;2.60;;;;;;;;;;5091003;28;20228;-63
2022/06/11 00:43:25;;;;;;;5.20;2.73;;;;;;;;;;5094291;28;20210;-63
2022/06/11 00:45:58;;;;;;;5.43;3.27;;;;;;;;;;5092211;28;20209;-63
2022/06/11 00:48:30;;;;;;;9.67;2.70;;;;;;;;;;5097120;28;20206;-63
2022/06/11 00:50:59;;;;;;;2.93;2.57;;;;;;;;;;5093064;28;20242;-63
2022/06/11 00:53:32;;;;;;;5.70;2.10;;;;;;;;;;5097640;28;20207;-63
2022/06/11 00:56:00;;;;;;;4.33;2.33;;;;;;;;;;5094592;28;20197;-63
2022/06/11 00:58:31;;;;;;;3.93;2.40;;;;;;;;;;5097591;28;20202;-63
2022/06/11 01:01:00;;;;;;;2.67;2.40;;;;;;;;;;5091154;28;20634;-63
2022/06/11 01:03:31;;;;;;;5.23;2.67;;;;;;;;;;5092971;28;20697;-63
2022/06/11 01:06:04;;;;;;;5.70;2.17;;;;;;;;;;5090551;28;20251;-63
2022/06/11 01:08:36;;;;;;;4.50;2.27;;;;;;;;;;5095790;28;20237;-63
2022/06/11 01:11:27;;;;;;;3.57;1.80;;;;;;;;;;5094166;28;20202;-64
2022/06/11 01:14:01;;;;;;;2.73;1.80;;;;;;;;;;5097047;28;20710;-62
2022/06/11 01:16:36;;;;;;;2.57;2.03;;;;;;;;;;5089943;28;20234;-62
2022/06/11 01:19:14;;;;;;;5.50;2.63;;;;;;;;;;5097170;28;20207;-63
2022/06/11 01:21:51;;;;;;;2.37;1.60;;;;;;;;;;5090439;28;20225;-63
2022/06/11 01:24:36;;;;;;;3.67;2.30;;;;;;;;;;5094653;28;20201;-63
2022/06/11 01:27:23;;;;;;;4.63;2.00;;;;;;;;;;5093337;28;20217;-63
2022/06/11 01:29:54;;;;;;;2.57;1.93;;;;;;;;;;5095594;28;20230;-63
2022/06/11 01:32:26;;;;;;;3.47;2.40;;;;;;;;;;5094572;28;20788;-63
2022/06/11 01:35:02;;;;;;;4.97;2.73;;;;;;;;;;5094480;28;20252;-63
2022/06/11 01:37:32;;;;;;;3.20;2.57;;;;;;;;;;5088818;28;20727;-62
2022/06/11 01:40:02;;;;;;;7.10;3.13;;;;;;;;;;5087905;28;20201;-63
2022/06/11 01:42:34;;;;;;;6.67;2.80;;;;;;;;;;5096025;28;20245;-63
2022/06/11 01:45:06;;;;;;;4.93;2.50;;;;;;;;;;5103736;28;20258;-64
2022/06/11 01:47:34;;;;;;;2.37;2.00;;;;;;;;;;5104161;28;20278;-62
2022/06/11 01:50:04;;;;;;;2.90;2.60;;;;;;;;;;5095353;28;20256;-63
2022/06/11 01:52:39;;;;;;;3.03;2.40;;;;;;;;;;5104002;28;20247;-64
2022/06/11 01:55:13;;;;;;;5.37;2.77;;;;;;;;;;5093995;28;20309;-63
2022/06/11 01:57:58;;;;;;;4.60;2.00;;;;;;;;;;5100806;28;20225;-63
2022/06/11 02:00:30;;;;;;;3.07;2.17;;;;;;;;;;5100320;28;20832;-63
2022/06/11 02:03:05;;;;;;;4.17;2.00;;;;;;;;;;5103194;28;20214;-63
2022/06/11 02:05:42;;;;;;;6.67;2.00;;;;;;;;;;5093460;28;20197;-63
2022/06/11 02:08:15;;;;;;;3.87;1.80;;;;;;;;;;5099096;28;20227;-63
2022/06/11 02:10:46;;;;;;;2.67;1.60;;;;;;;;;;5093037;28;20251;-63
2022/06/11 02:13:17;;;;;;;4.10;2.17;;;;;;;;;;5102646;28;20264;-63
2022/06/11 02:15:50;;;;;;;5.33;3.00;;;;;;;;;;5101033;28;20281;-63
2022/06/11 02:18:19;;;;;;;4.63;2.77;;;;;;;;;;5093576;28;20212;-63
2022/06/11 02:20:49;;;;;;;4.40;2.90;;;;;;;;;;5092665;28;20217;-63
2022/06/11 02:23:18;;;;;;;3.77;2.17;;;;;;;;;;5107800;28;20201;-63
2022/06/11 02:25:48;;;;;;;2.77;1.57;;;;;;;;;;5093360;28;20225;-63
2022/06/11 02:28:18;;;;;;;5.07;2.93;;;;;;;;;;5110239;28;20201;-63
2022/06/11 02:30:48;;;;;;;3.23;2.20;;;;;;;;;;5092732;28;20250;-63
2022/06/11 02:33:17;;;;;;;4.90;2.20;;;;;;;;;;5102332;28;20233;-63
2022/06/11 02:35:46;;;;;;;6.47;2.33;;;;;;;;;;5096185;28;20262;-63
2022/06/11 02:38:16;;;;;;;2.87;2.17;;;;;;;;;;5095197;28;20209;-63
2022/06/11 02:40:45;;;;;;;3.17;2.10;;;;;;;;;;5097317;28;20216;-63
2022/06/11 02:43:13;;;;;;;4.37;1.97;;;;;;;;;;5102978;28;20213;-63
2022/06/11 02:45:41;;;;;;;2.33;1.90;;;;;;;;;;5097557;28;20228;-63
2022/06/11 02:48:11;;;;;;;4.07;1.70;;;;;;;;;;5098661;28;20201;-63
2022/06/11 02:50:39;;;;;;;3.93;2.60;;;;;;;;;;5098014;28;20206;-63
2022/06/11 02:53:08;;;;;;;4.20;2.23;;;;;;;;;;5095771;28;20739;-63
2022/06/11 02:55:37;;;;;;;2.30;1.67;;;;;;;;;;5098390;28;20267;-63
2022/06/11 02:58:06;;;;;;;6.23;2.27;;;;;;;;;;5096133;28;20312;-63
2022/06/11 03:00:36;;;;;;;3.07;1.80;;;;;;;;;;5092803;28;20205;-63
2022/06/11 03:03:04;;;;;;;4.70;1.80;;;;;;;;;;5103901;28;20645;-63
2022/06/11 03:05:35;;;;;;;4.80;1.80;;;;;;;;;;5095593;28;20197;-63
2022/06/11 03:08:03;;;;;;;3.73;1.40;;;;;;;;;;5098075;28;20229;-63
2022/06/11 03:10:32;;;;;;;1.63;1.50;;;;;;;;;;5093062;28;20794;-63
2022/06/11 03:13:00;;;;;;;3.03;2.00;;;;;;;;;;5098060;28;20206;-62
2022/06/11 03:15:28;;;;;;;2.83;2.00;;;;;;;;;;5094518;28;20260;-62
2022/06/11 03:17:57;;;;;;;1.63;1.33;;;;;;;;;;5099663;28;20222;-63
2022/06/11 03:20:26;;;;;;;3.77;1.30;;;;;;;;;;5090208;28;20256;-64
2022/06/11 03:22:55;;;;;;;4.53;1.57;;;;;;;;;;5100552;28;20228;-64
2022/06/11 03:25:24;;;;;;;1.50;1.37;;;;;;;;;;5101504;28;20627;-64
2022/06/11 03:27:52;;;;;;;2.13;1.43;;;;;;;;;;5096579;28;20287;-64
2022/06/11 03:30:20;;;;;;;5.67;2.23;;;;;;;;;;5100899;28;20198;-64
2022/06/11 03:32:48;;;;;;;4.63;1.70;;;;;;;;;;5105452;28;20290;-64
2022/06/11 03:35:16;;;;;;;3.60;2.17;;;;;;;;;;5093447;28;20227;-64
2022/06/11 03:37:45;;;;;;;5.33;1.80;;;;;;;;;;5085521;28;20261;-64
2022/06/11 03:40:14;;;;;;;2.77;2.50;;;;;;;;;;5092708;28;20202;-64
2022/06/11 03:42:42;;;;;;;3.70;2.43;;;;;;;;;;5106009;28;20206;-64
2022/06/11 03:45:11;;;;;;;4.33;2.70;;;;;;;;;;5094661;28;20206;-64
2022/06/11 03:47:40;;;;;;;2.87;1.80;;;;;;;;;;5097960;28;20701;-64
2022/06/11 03:50:09;;;;;;;3.53;1.80;;;;;;;;;;5091017;28;20248;-64
2022/06/11 03:52:38;;;;;;;2.37;2.07;;;;;;;;;;5095130;28;20660;-64
2022/06/11 03:55:06;;;;;;;4.13;2.20;;;;;;;;;;5094851;28;20251;-64
2022/06/11 03:57:36;;;;;;;3.70;2.20;;;;;;;;;;5094960;28;20304;-64
2022/06/11 04:00:07;;;;;;;7.87;2.47;;;;;;;;;;5098721;28;20234;-64
2022/06/11 04:02:35;;;;;;;5.70;2.37;;;;;;;;;;5100711;28;20266;-64
2022/06/11 04:05:04;;;;;;;2.40;2.00;;;;;;;;;;5086800;28;20660;-64
2022/06/11 04:07:32;;;;;;;4.83;2.67;;;;;;;;;;5093305;28;20214;-65
2022/06/11 04:10:00;;;;;;;5.27;3.77;;;;;;;;;;5095616;28;20707;-65
2022/06/11 04:12:28;;;;;;;4.70;2.20;;;;;;;;;;5094081;28;20209;-65
2022/06/11 04:14:58;;;;;;;2.40;2.20;;;;;;;;;;5091870;28;20202;-65
2022/06/11 04:17:28;;;;;;;3.27;2.17;;;;;;;;;;5098572;28;20234;-65
2022/06/11 04:19:56;;;;;;;3.90;2.37;;;;;;;;;;5090552;28;20796;-65
2022/06/11 04:22:24;;;;;;;5.93;2.17;;;;;;;;;;5096556;28;20237;-65
2022/06/11 04:24:52;;;;;;;4.83;2.27;;;;;;;;;;5096915;28;20216;-65
2022/06/11 04:27:22;;;;;;;7.33;2.13;;;;;;;;;;5098347;28;20248;-65
2022/06/11 04:29:51;;;;;;;3.67;2.20;;;;;;;;;;5099580;28;20197;-65
2022/06/11 04:32:22;;;;;;;1.77;1.67;;;;;;;;;;5100369;28;20229;-65
2022/06/11 04:34:51;;;;;;;2.77;1.80;;;;;;;;;;5098374;28;20221;-65
2022/06/11 04:37:20;;;;;;;6.23;2.60;;;;;;;;;;5102521;28;20671;-65
2022/06/11 04:39:50;;;;;;;6.53;2.70;;;;;;;;;;5098483;28;20232;-65
2022/06/11 04:42:19;;;;;;;3.50;2.57;;;;;;;;;;5105307;28;20229;-65
2022/06/11 04:44:47;;;;;;;5.53;2.60;;;;;;;;;;5099509;28;20229;-65
2022/06/11 04:47:18;;;;;;;3.53;2.30;;;;;;;;;;5107200;28;20222;-64
2022/06/11 04:49:47;;;;;;;7.60;2.60;;;;;;;;;;5098330;28;20697;-65
2022/06/11 04:52:15;;;;;;;3.53;1.97;;;;;;;;;;5106584;28;20387;-65
2022/06/11 04:54:43;;;;;;;4.10;2.30;;;;;;;;;;5097435;28;20801;-66
2022/06/11 04:57:12;;;;;;;5.53;2.57;;;;;;;;;;5108694;28;20353;-65
2022/06/11 04:59:40;;;;;;;5.53;2.67;;;;;;;;;;5109932;28;20252;-65
2022/06/11 05:02:08;;;;;;;4.93;2.70;;;;;;;;;;5105503;28;20223;-65
2022/06/11 05:04:37;;;;;;;9.80;5.13;;;;;;;;;;5097281;28;20206;-65
2022/06/11 05:07:07;;;;;;;12.80;4.43;;;;;;;;;;5091258;28;20214;-65
2022/06/11 05:09:35;;;;;;;6.90;3.77;;;;;;;;;;5109874;28;20259;-65
2022/06/11 05:12:03;;;;;;;9.30;4.50;;;;;;;;;;5101793;28;20233;-65
2022/06/11 05:14:31;;;;;;;10.87;4.23;;;;;;;;;;5111706;28;20344;-65
2022/06/11 05:16:59;;;;;;;9.90;4.73;;;;;;;;;;5103312;28;20588;-65
2022/06/11 05:19:28;;;;;;;15.93;5.80;;;;;;;;;;5098055;28;20338;-65
2022/06/11 05:21:56;;;;;;;10.27;4.83;;;;;;;;;;5108177;28;20200;-65
2022/06/11 05:24:26;;;;;;;8.40;4.23;;;;;;;;;;5111658;28;20240;-65
2022/06/11 05:26:55;;;;;;;12.03;5.50;;;;;;;;;;5111345;28;20221;-65
2022/06/11 05:29:25;;;;;;;12.03;4.73;;;;;;;;;;5110882;28;20239;-65
2022/06/11 05:31:53;;;;;;;9.00;4.90;;;;;;;;;;5107893;28;20245;-65
2022/06/11 05:34:26;;;;;;;8.07;5.23;;;;;;;;;;5099782;28;20201;-65
2022/06/11 05:36:54;;;;;;;16.97;5.67;;;;;;;;;;5100811;28;20230;-65
2022/06/11 05:39:22;;;;;;;14.67;5.33;;;;;;;;;;5098131;28;20206;-65
2022/06/11 05:41:52;;;;;;;10.37;5.37;;;;;;;;;;5105219;28;20198;-65
2022/06/11 05:44:21;;;;;;;17.13;5.43;;;;;;;;;;5102871;28;20244;-65
2022/06/11 05:46:50;;;;;;;7.33;2.60;;;;;;;;;;5103710;28;20229;-65
2022/06/11 05:49:20;;;;;;;7.10;2.43;;;;;;;;;;5097490;28;20216;-65
2022/06/11 05:51:50;;;;;;;5.23;2.70;;;;;;;;;;5110613;28;20643;-65
2022/06/11 05:54:20;;;;;;;4.17;1.77;;;;;;;;;;5098935;28;20206;-65
2022/06/11 05:56:49;;;;;;;4.50;2.33;;;;;;;;;;5112468;28;20245;-65
2022/06/11 05:59:21;;;;;;;6.10;2.93;;;;;;;;;;5109158;28;20231;-65
2022/06/11 06:01:50;;;;;;;3.10;1.73;;;;;;;;;;5110219;28;20202;-65
2022/06/11 06:04:18;;;;;;;3.80;1.73;;;;;;;;;;5098695;28;20237;-65
2022/06/11 06:06:46;;;;;;;3.73;1.83;;;;;;;;;;5110616;28;20221;-65
2022/06/11 06:09:14;;;;;;;3.33;1.63;;;;;;;;;;5099504;28;20213;-65
2022/06/11 06:11:42;;;;;;;4.43;2.20;;;;;;;;;;5109704;28;20230;-65
2022/06/11 06:14:10;;;;;;;9.07;2.67;;;;;;;;;;5093356;28;20204;-64
2022/06/11 06:16:39;;;;;;;6.43;1.90;;;;;;;;;;5098038;28;20253;-65
2022/06/11 06:19:08;;;;;;;3.83;1.80;;;;;;;;;;5097711;28;20204;-65
2022/06/11 06:21:37;;;;;;;5.53;2.17;;;;;;;;;;5093703;28;20221;-65
2022/06/11 06:24:05;;;;;;;3.20;1.93;;;;;;;;;;5097883;28;20220;-65
2022/06/11 06:26:34;;;;;;;4.20;1.63;;;;;;;;;;5098303;28;20308;-65
2022/06/11 06:29:02;;;;;;;4.37;1.83;;;;;;;;;;5097649;28;20201;-65
2022/06/11 06:31:30;;;;;;;2.87;1.93;;;;;;;;;;5096879;28;20201;-65
2022/06/11 06:34:01;;;;;;;3.47;1.60;;;;;;;;;;5097307;28;20624;-65
2022/06/11 06:39:51;;;;;;;5.80;1.40;;;;;;;;;;5098808;28;20239;-65
2022/06/11 06:42:19;;;;;;;2.43;1.37;;;;;;;;;;5104769;28;20208;-65
2022/06/11 06:44:47;;;;;;;3.17;1.50;;;;;;;;;;5100021;28;20237;-66
2022/06/11 06:47:15;;;;;;;1.50;1.40;;;;;;;;;;5097652;28;20573;-65
2022/06/11 06:49:44;;;;;;;5.80;1.80;;;;;;;;;;5093868;28;20199;-65
2022/06/11 06:52:12;;;;;;;4.37;1.40;;;;;;;;;;5091828;28;20226;-66
2022/06/11 06:54:40;;;;;;;2.90;1.43;;;;;;;;;;5084807;28;20205;-66
2022/06/11 06:57:08;;;;;;;1.87;1.27;;;;;;;;;;5098692;28;20232;-65
2022/06/11 06:59:36;;;;;;;2.30;1.40;;;;;;;;;;5101228;28;20712;-66
2022/06/11 07:02:05;;;;;;;1.17;1.03;;;;;;;;;;5098573;28;20639;-66
2022/06/11 07:04:33;;;;;;;2.07;1.43;;;;;;;;;;5097807;28;20611;-66
2022/06/11 07:07:02;;;;;;;4.10;2.33;;;;;;;;;;5097616;28;20235;-66
2022/06/11 07:09:31;;;;;;;1.73;1.10;;;;;;;;;;5095319;28;20198;-65
2022/06/11 07:11:59;;;;;;;5.33;1.40;;;;;;;;;;5093817;28;20200;-65
2022/06/11 07:14:27;;;;;;;4.70;1.30;;;;;;;;;;5096188;28;20202;-65
2022/06/11 07:16:57;;;;;;;2.63;1.30;;;;;;;;;;5094806;28;20222;-65
2022/06/11 07:19:27;;;;;;;2.57;1.37;;;;;;;;;;5099372;28;20207;-66
2022/06/11 07:21:57;;;;;;;2.50;1.67;;;;;;;;;;5090400;28;20232;-66
2022/06/11 07:24:28;;;;;;;4.40;1.27;;;;;;;;;;5098040;28;20251;-67
2022/06/11 07:26:57;;;;;;;3.43;1.50;;;;;;;;;;5097613;28;20276;-65
2022/06/11 07:29:27;;;;;;;6.70;3.77;;;;;;;;;;5091330;28;20204;-65
2022/06/11 07:31:57;;;;;;;1.50;1.40;;;;;;;;;;5095660;28;20237;-68
2022/06/11 07:34:25;;;;;;;2.23;1.83;;;;;;;;;;5095632;28;20251;-68
2022/06/11 07:36:53;;;;;;;2.77;1.80;;;;;;;;;;5094207;28;20225;-68
2022/06/11 07:39:21;;;;;;;4.17;1.63;;;;;;;;;;5092787;28;20218;-67
2022/06/11 07:41:51;;;;;;;1.80;1.30;;;;;;;;;;5096967;28;20214;-67
2022/06/11 07:44:19;;;;;;;2.60;1.50;;;;;;;;;;5095552;28;20197;-70
2022/06/11 07:46:48;;;;;;;4.70;1.60;;;;;;;;;;5105533;28;20218;-70
2022/06/11 07:49:16;;;;;;;2.97;1.70;;;;;;;;;;5099839;28;20262;-70
2022/06/11 07:51:44;;;;;;;6.33;2.43;;;;;;;;;;5092356;28;20205;-65
2022/06/11 07:54:12;;;;;;;5.87;1.40;;;;;;;;;;5094981;28;20251;-65
2022/06/11 07:56:40;;;;;;;3.20;2.20;;;;;;;;;;5095856;28;20232;-66
2022/06/11 07:59:10;;;;;;;2.30;1.67;;;;;;;;;;5093035;28;20234;-65
2022/06/11 08:01:38;;;;;;;1.60;1.40;;;;;;;;;;5096771;28;20259;-68
2022/06/11 08:04:06;;;;;;;3.53;2.03;;;;;;;;;;5096589;28;20212;-65
2022/06/11 08:06:34;;;;;;;3.43;1.67;;;;;;;;;;5102459;28;20225;-66
2022/06/11 08:09:02;;;;;;;4.00;1.47;;;;;;;;;;5102358;28;20244;-65
2022/06/11 08:11:30;;;;;;;4.13;1.60;;;;;;;;;;5096156;28;20252;-67
2022/06/11 08:13:58;;;;;;;4.40;1.90;;;;;;;;;;5095641;28;20207;-67
2022/06/11 08:16:28;;;;;;;3.23;1.83;;;;;;;;;;5102383;28;20218;-66
2022/06/11 08:18:56;;;;;;;5.93;1.83;;;;;;;;;;5088029;28;20695;-67
2022/06/11 08:21:53;;;;;;;1.50;1.37;;;;;;;;;;5104790;28;20201;-63
2022/06/11 08:24:21;;;;;;;4.50;1.57;;;;;;;;;;5088838;28;20236;-64
2022/06/11 08:26:50;;;;;;;2.97;2.00;;;;;;;;;;5093520;28;20267;-62
2022/06/11 08:29:18;;;;;;;3.83;1.60;;;;;;;;;;5115152;28;20633;-64
2022/06/11 08:31:48;;;;;;;4.67;1.73;;;;;;;;;;5102572;28;20262;-64
2022/06/11 08:34:16;;;;;;;3.63;1.80;;;;;;;;;;5092629;28;20205;-64
2022/06/11 08:36:44;;;;;;;7.10;1.97;;;;;;;;;;5090633;28;20214;-64
2022/06/11 08:39:12;;;;;;;5.17;1.90;;;;;;;;;;5103970;28;20222;-63
2022/06/11 08:41:40;;;;;;;4.87;1.70;;;;;;;;;;5104460;28;20243;-64
2022/06/11 08:44:10;;;;;;;2.37;1.53;;;;;;;;;;5087476;28;20608;-63
2022/06/11 08:46:40;;;;;;;3.97;1.80;;;;;;;;;;5091121;28;20213;-68
2022/06/11 08:49:18;;;;;;;2.70;1.90;;;;;;;;;;5092064;28;20195;-64
2022/06/11 08:51:49;;;;;;;4.00;2.00;;;;;;;;;;5088197;28;20201;-62
2022/06/11 08:54:19;;;;;;;2.33;1.73;;;;;;;;;;5103875;28;21005;-62
2022/06/11 08:56:50;;;;;;;2.00;1.50;;;;;;;;;;5089719;28;20652;-62
2022/06/11 08:59:35;;;;;;;2.47;2.10;;;;;;;;;;5096365;28;20217;-62
2022/06/11 09:02:14;;;;;;;4.60;1.90;;;;;;;;;;5090484;28;20684;-63
2022/06/11 09:04:53;;;;;;;3.33;1.80;;;;;;;;;;5090945;28;20200;-63
2022/06/11 09:11:04;;;;;;;2.57;1.67;;;;;;;;;;5095135;28;20656;-64
2022/06/11 09:14:02;;;;;;;4.20;1.40;;;;;;;;;;5101731;28;20857;-64
2022/06/11 09:16:37;;;;;;;6.60;1.60;;;;;;;;;;5019948;28;20222;-63
2022/06/11 09:19:12;;;;;;;1.60;1.50;;;;;;;;;;5079454;28;20227;-63
2022/06/11 09:21:51;;;;;;;4.47;1.93;;;;;;;;;;5090700;28;20203;-63
2022/06/11 09:24:29;;;;;;;2.87;1.60;;;;;;;;;;5092443;28;20572;-64
2022/06/11 09:30:09;;;;;;;3.17;1.93;;;;;;;;;;5101777;28;20196;-72
2022/06/11 09:32:41;;;;;;;2.60;1.53;;;;;;;;;;5098232;28;20275;-72
2022/06/11 09:35:10;;;;;;;2.87;1.80;;;;;;;;;;5094928;28;20197;-71
2022/06/11 09:37:43;;;;;;;1.20;1.03;;;;;;;;;;5095646;28;20227;-72
2022/06/11 09:40:18;;;;;;;2.27;2.03;;;;;;;;;;5094353;28;20239;-71
2022/06/11 09:42:54;;;;;;;2.43;1.43;;;;;;;;;;5097459;28;20659;-71
2022/06/11 09:45:27;;;;;;;2.50;2.00;;;;;;;;;;5094191;28;20210;-71
2022/06/11 09:47:58;;;;;;;2.37;1.60;;;;;;;;;;5084562;28;20223;-71
2022/06/11 09:50:29;;;;;;;3.80;1.33;;;;;;;;;;5092363;28;20226;-73
2022/06/11 09:53:07;;;;;;;2.30;1.77;;;;;;;;;;5088982;28;20201;-72
2022/06/11 09:55:39;;;;;;;3.07;1.83;;;;;;;;;;5094294;28;20568;-70
2022/06/11 09:58:12;;;;;;;1.37;1.27;;;;;;;;;;5097143;28;20305;-69
2022/06/11 10:00:57;;;;;;;1.57;1.40;;;;;;;;;;5099417;28;20707;-69
2022/06/11 10:03:30;;;;;;;3.47;1.60;;;;;;;;;;5095475;28;20611;-68
2022/06/11 10:06:00;;;;;;;2.00;1.10;;;;;;;;;;5099708;28;20234;-67
2022/06/11 10:08:35;;;;;;;2.43;1.47;;;;;;;;;;5098907;28;20609;-71
2022/06/11 10:11:20;;;;;;;2.60;1.83;;;;;;;;;;5092798;28;20199;-65
2022/06/11 10:17:19;;;;;;;2.27;1.83;;;;;;;;;;5093954;28;20201;-68
2022/06/11 10:19:51;;;;;;;1.83;1.43;;;;;;;;;;5104392;28;20227;-65
2022/06/11 10:22:22;;;;;;;3.93;1.80;;;;;;;;;;5093606;28;20285;-66
2022/06/11 10:25:14;;;;;;;5.27;2.17;;;;;;;;;;5091000;28;20208;-68
2022/06/11 10:27:49;;;;;;;3.23;1.70;;;;;;;;;;5092033;28;20217;-68
2022/06/11 10:34:03;;;;;;;3.83;1.97;;;;;;;;;;5045015;28;20251;-67
2022/06/11 10:36:32;;;;;;;2.80;1.87;;;;;;;;;;5094359;28;20243;-66
2022/06/11 10:39:02;;;;;;;1.53;1.23;;;;;;;;;;5082199;28;20252;-66
2022/06/11 10:41:34;;;;;;;4.63;1.40;;;;;;;;;;5094053;28;20257;-68
2022/06/11 10:44:12;;;;;;;2.17;1.60;;;;;;;;;;5086011;28;20205;-68
2022/06/11 10:46:40;;;;;;;3.03;1.60;;;;;;;;;;5088813;28;20292;-63
2022/06/11 10:49:12;;;;;;;2.70;1.43;;;;;;;;;;5101264;28;20251;-65
2022/06/11 10:51:41;;;;;;;1.67;1.57;;;;;;;;;;5090947;28;20230;-67
2022/06/11 10:54:13;;;;;;;1.80;1.30;;;;;;;;;;5093572;28;20198;-66
2022/06/11 10:56:43;;;;;;;5.03;1.47;;;;;;;;;;5096516;28;20275;-66
2022/06/11 10:59:16;;;;;;;2.07;1.87;;;;;;;;;;5094844;28;20879;-64
2022/06/11 11:01:45;;;;;;;3.43;1.40;;;;;;;;;;5095549;28;20253;-64
2022/06/11 11:04:27;;;;;;;1.77;1.40;;;;;;;;;;5090276;28;20210;-67
2022/06/11 11:07:09;;;;;;;5.00;1.50;;;;;;;;;;5093366;28;20226;-64
2022/06/11 11:09:37;;;;;;;2.60;1.87;;;;;;;;;;5091822;28;20215;-64
2022/06/11 11:15:29;;;;;;;4.20;1.17;;;;;;;;;;5096337;28;20189;-64
2022/06/11 11:18:02;;;;;;;1.37;1.27;;;;;;;;;;5104974;28;20229;-66
2022/06/11 11:20:41;;;;;;;2.90;1.37;;;;;;;;;;5106571;28;20222;-64
2022/06/11 11:23:15;;;;;;;4.60;2.37;;;;;;;;;;5113049;28;20209;-64
2022/06/11 11:25:45;;;;;;;3.63;1.37;;;;;;;;;;5090867;28;20674;-69
2022/06/11 11:28:19;;;;;;;2.10;1.20;;;;;;;;;;5087819;28;20234;-63
2022/06/11 11:30:55;;;;;;;1.33;1.17;;;;;;;;;;5096319;28;20200;-63
2022/06/11 11:33:25;;;;;;;2.30;1.50;;;;;;;;;;5092885;28;20597;-64
2022/06/11 11:36:01;;;;;;;1.87;1.33;;;;;;;;;;5095096;28;20201;-64
2022/06/11 11:38:29;;;;;;;2.27;1.17;;;;;;;;;;5096225;28;20230;-65
2022/06/11 11:40:58;;;;;;;3.77;1.17;;;;;;;;;;5097263;28;20245;-64
2022/06/11 11:43:33;;;;;;;1.77;1.17;;;;;;;;;;5095193;28;20715;-63
2022/06/11 11:46:04;;;;;;;1.50;1.10;;;;;;;;;;5094150;28;20228;-63
2022/06/11 11:48:33;;;;;;;3.33;1.50;;;;;;;;;;5096766;28;20210;-64
2022/06/11 11:51:04;;;;;;;2.10;1.33;;;;;;;;;;5093567;28;20865;-63
2022/06/11 11:53:35;;;;;;;2.33;1.27;;;;;;;;;;5095769;28;20252;-63
2022/06/11 11:56:04;;;;;;;1.60;1.43;;;;;;;;;;5096142;28;20603;-63
2022/06/11 11:58:34;;;;;;;1.50;1.40;;;;;;;;;;5096121;28;20660;-64
2022/06/11 12:01:06;;;;;;;1.10;1.10;;;;;;;;;;5101217;28;20230;-64
2022/06/11 12:03:36;;;;;;;2.50;1.30;;;;;;;;;;5107240;28;20207;-64
2022/06/11 12:06:05;;;;;;;1.80;1.40;;;;;;;;;;5107762;28;20231;-64
2022/06/11 12:08:35;;;;;;;0.80;0.80;;;;;;;;;;5097120;28;20643;-64
2022/06/11 12:11:05;;;;;;;1.30;1.20;;;;;;;;;;5105132;28;20653;-64
2022/06/11 12:13:43;;;;;;;2.87;1.30;;;;;;;;;;5101935;28;20240;-64
2022/06/11 12:16:17;;;;;;;5.90;1.70;;;;;;;;;;5091692;28;20723;-66
2022/06/11 12:18:49;;;;;;;1.10;1.00;;;;;;;;;;5086119;28;20604;-66
2022/06/11 12:21:19;;;;;;;2.27;1.17;;;;;;;;;;5107424;28;20225;-63
2022/06/11 12:23:50;;;;;;;1.60;1.50;;;;;;;;;;5082953;28;20268;-67
2022/06/11 12:26:20;;;;;;;1.70;1.30;;;;;;;;;;5094525;28;20728;-66
2022/06/11 12:28:52;;;;;;;3.17;1.53;;;;;;;;;;5108396;28;20247;-64
2022/06/11 12:31:22;;;;;;;2.20;1.40;;;;;;;;;;5094622;28;20221;-65
2022/06/11 12:33:52;;;;;;;3.20;1.50;;;;;;;;;;5096389;28;20567;-66
2022/06/11 12:36:25;;;;;;;3.10;1.60;;;;;;;;;;5080629;28;20223;-66
2022/06/11 12:38:56;;;;;;;2.40;1.30;;;;;;;;;;5089507;28;20249;-66
2022/06/11 12:41:46;;;;;;;3.10;1.20;;;;;;;;;;5091279;28;20224;-65
2022/06/11 12:44:35;;;;;;;3.33;1.07;;;;;;;;;;5100731;28;20228;-66
2022/06/11 12:47:11;;;;;;;1.20;1.20;;;;;;;;;;5098645;28;20269;-66
2022/06/11 12:49:43;;;;;;;1.10;0.97;;;;;;;;;;5101189;28;20212;-66
2022/06/11 12:52:17;;;;;;;1.77;0.97;;;;;;;;;;5095520;28;20203;-66
2022/06/11 12:55:08;;;;;;;1.20;1.10;;;;;;;;;;5100225;28;20207;-66
2022/06/11 12:57:44;;;;;;;1.20;1.03;;;;;;;;;;5100923;28;20278;-66
2022/06/11 13:00:23;;;;;;;2.33;0.93;;;;;;;;;;5088007;28;20229;-65
2022/06/11 13:02:57;;;;;;;2.23;1.13;;;;;;;;;;5100506;28;20666;-65
2022/06/11 13:05:52;;;;;;;1.10;1.00;;;;;;;;;;5099911;28;20291;-65
2022/06/11 13:08:35;;;;;;;3.20;1.00;;;;;;;;;;5081914;28;20235;-65
2022/06/11 13:11:11;;;;;;;2.00;1.20;;;;;;;;;;5095852;28;20195;-65
2022/06/11 13:13:50;;;;;;;2.33;1.00;;;;;;;;;;5097134;28;20238;-65
2022/06/11 13:16:23;;;;;;;3.80;0.93;;;;;;;;;;5085556;28;20252;-63
2022/06/11 13:19:04;;;;;;;1.10;1.00;;;;;;;;;;5099783;28;20208;-63
2022/06/11 13:21:36;;;;;;;1.40;1.30;;;;;;;;;;5095083;28;20239;-65
2022/06/11 13:24:09;;;;;;;1.63;0.80;;;;;;;;;;5097833;28;20230;-69
2022/06/11 13:26:43;;;;;;;2.23;1.20;;;;;;;;;;5095022;28;20228;-70
2022/06/11 13:29:45;;;;;;;1.87;1.47;;;;;;;;;;5090093;28;20232;-66
2022/06/11 13:32:36;;;;;;;1.10;1.00;;;;;;;;;;5101948;28;20266;-64
2022/06/11 13:35:20;;;;;;;1.47;1.37;;;;;;;;;;5098114;28;20202;-65
2022/06/11 13:37:55;;;;;;;0.90;0.90;;;;;;;;;;5086542;28;20225;-67
2022/06/11 13:40:28;;;;;;;1.87;1.27;;;;;;;;;;5096523;28;20201;-64
2022/06/11 13:43:04;;;;;;;3.00;1.00;;;;;;;;;;5085276;28;20204;-65
2022/06/11 13:45:35;;;;;;;1.90;1.17;;;;;;;;;;5092656;28;20198;-65
2022/06/11 13:48:12;;;;;;;1.10;0.83;;;;;;;;;;5098803;28;20226;-68
2022/06/11 13:50:48;;;;;;;1.60;1.00;;;;;;;;;;5097878;28;20237;-67
2022/06/11 13:56:11;;;;;;;67.37;3.87;;;;;;;;;;5097611;28;20215;-70
2022/06/11 13:58:50;;;;;;;6.70;1.23;;;;;;;;;;5097031;28;20561;-63
2022/06/11 14:01:29;;;;;;;2.07;0.83;;;;;;;;;;5097545;28;20584;-64
2022/06/11 14:04:06;;;;;;;1.03;0.90;;;;;;;;;;5099457;28;20606;-65
2022/06/11 14:06:37;;;;;;;1.00;0.73;;;;;;;;;;5090711;28;20225;-65
2022/06/11 14:10:20;;;;;;;2.05;0.95;;;;;;;;;;5094904;28;20205;-65
2022/06/11 14:11:57;;;;;;;1.63;0.77;;;;;;;;;;5095160;28;20236;-65
2022/06/11 14:14:37;;;;;;;2.00;0.97;;;;;;;;;;5095359;28;20295;-67
2022/06/11 14:17:20;;;;;;;3.30;1.00;;;;;;;;;;5099150;28;20591;-64
2022/06/11 14:22:55;;;;;;;1.23;0.80;;;;;;;;;;5095882;28;20227;-65
2022/06/11 14:25:38;;;;;;;0.70;0.70;;;;;;;;;;5095514;28;20201;-67
2022/06/11 14:28:27;;;;;;;1.23;0.70;;;;;;;;;;5084520;28;20252;-63
2022/06/11 14:31:06;;;;;;;0.70;0.70;;;;;;;;;;5088777;28;20214;-64
2022/06/11 14:33:35;;;;;;;2.40;0.90;;;;;;;;;;5089397;28;20734;-67
2022/06/11 14:36:06;;;;;;;1.80;0.80;;;;;;;;;;5099002;28;20311;-66
2022/06/11 14:38:44;;;;;;;1.43;1.13;;;;;;;;;;5091121;28;20203;-64
2022/06/11 14:41:38;;;;;;;2.07;1.00;;;;;;;;;;5090663;28;20209;-66
2022/06/11 14:44:17;;;;;;;1.87;1.10;;;;;;;;;;5049358;28;20234;-64
2022/06/11 14:46:48;;;;;;;1.00;0.80;;;;;;;;;;5092281;28;20262;-63
2022/06/11 14:49:36;;;;;;;0.53;0.53;;;;;;;;;;5094481;28;20199;-63
2022/06/11 14:52:22;;;;;;;0.90;0.63;;;;;;;;;;5095228;28;20196;-62
2022/06/11 14:54:55;;;;;;;2.77;0.80;;;;;;;;;;5086694;28;20212;-63
2022/06/11 14:57:29;;;;;;;1.10;0.97;;;;;;;;;;5091885;28;20217;-64
2022/06/11 15:00:05;;;;;;;1.57;0.70;;;;;;;;;;5090799;28;20229;-63
2022/06/11 15:02:55;;;;;;;1.03;0.60;;;;;;;;;;5095055;28;20218;-63
2022/06/11 15:05:29;;;;;;;3.03;1.00;;;;;;;;;;5088796;28;20202;-63
2022/06/11 15:08:05;;;;;;;3.92;1.33;;;;;;;;;;5089026;28;20234;-63
2022/06/11 15:10:35;;;;;;;0.67;0.67;;;;;;;;;;5090772;28;20209;-63
2022/06/11 15:13:24;;;;;;;2.67;0.63;;;;;;;;;;5096127;28;20196;-65
2022/06/11 15:19:32;;;;;;;0.83;0.83;;;;;;;;;;5086899;28;20290;-61
2022/06/11 15:22:03;;;;;;;1.10;0.90;;;;;;;;;;5100538;28;20677;-61
2022/06/11 15:24:45;;;;;;;1.17;0.90;;;;;;;;;;5101030;28;20213;-61
2022/06/11 15:27:13;;;;;;;1.17;0.60;;;;;;;;;;5101849;28;20579;-61
2022/06/11 15:29:41;;;;;;;0.70;0.70;;;;;;;;;;5098709;28;20214;-62
2022/06/11 15:32:16;;;;;;;0.83;0.67;;;;;;;;;;5108708;28;20200;-62
2022/06/11 15:34:55;;;;;;;2.00;0.80;;;;;;;;;;5096238;28;20265;-62
2022/06/11 15:37:25;;;;;;;10.87;6.97;;;;;;;;;;5105534;28;20246;-62
2022/06/11 15:39:54;;;;;;;1.67;0.83;;;;;;;;;;5107725;28;20196;-62
2022/06/11 15:42:27;;;;;;;0.70;0.70;;;;;;;;;;5096954;28;20243;-62